Overview Statistics Trail Chart Weather Telemetry Raw packets
 

This is the latest recevied weather packets stored in our database for station/object EA5GTE-12. If no packets are shown the sender has not sent any weather packets the latest 10 day(s).

<< 9 10 11 12 13 14 15 >>
Time Temp. Humidity Pressure Rain* Wind** Luminosity Snow
1788369822 35° C 32% 941.7 hPa - - - -
1788368923 36.11° C 28% 941.6 hPa - - - -
1788368022 37.22° C 26% 941.6 hPa - - - -
1788367122 38.33° C 24% 941.4 hPa - - - -
1788365321 42.22° C 16% 941.4 hPa - - - -
1788364421 42.78° C 15% 941.4 hPa - - - -
1788363521 42.78° C 15% 941.4 hPa - - - -
1788362621 42.78° C 15% 941.6 hPa - - - -
1788361721 40° C 18% 941.7 hPa - - - -
1788360821 39.44° C 18% 941.8 hPa - - - -
1788359921 40.56° C 17% 941.8 hPa - - - -
1788359021 41.67° C 16% 941.9 hPa - - - -
1788358121 41.67° C 17% 942.1 hPa - - - -
1788357221 41.11° C 17% 942.3 hPa - - - -
1788356321 40.56° C 18% 942.4 hPa - - - -
1788355421 42.78° C 16% 942.4 hPa - - - -
1788354521 41.67° C 17% 942.6 hPa - - - -
1788353621 40° C 19% 942.8 hPa - - - -
1788352721 40.56° C 18% 942.9 hPa - - - -
1788351820 40° C 20% 943.1 hPa - - - -
1788350920 38.89° C 21% 943.3 hPa - - - -
1788350020 41.11° C 19% 943.4 hPa - - - -
1788349120 41.67° C 19% 943.5 hPa - - - -
1788348220 37.22° C 23% 943.7 hPa - - - -
1788347320 40° C 21% 943.8 hPa - - - -

* Rain since midnight (hover to see other rain measurements)
** Current wind speed in m/s (hover to see current wind gust speed)